createdAt,value
2019-03-31T00:01:39.070Z,11.40
2019-03-31T00:04:07.865Z,11.40
2019-03-31T00:06:36.677Z,11.30
2019-03-31T00:09:06.854Z,11.20
2019-03-31T00:11:35.575Z,11.10
2019-03-31T00:14:04.435Z,11.00
2019-03-31T00:16:33.248Z,11.00
2019-03-31T00:19:01.961Z,10.90
2019-03-31T00:21:30.698Z,10.90
2019-03-31T00:23:59.434Z,10.80
2019-03-31T00:26:28.235Z,10.80
2019-03-31T00:28:56.956Z,10.80
2019-03-31T00:31:25.768Z,10.80
2019-03-31T00:33:54.540Z,10.80
2019-03-31T00:36:23.284Z,10.80
2019-03-31T00:38:52.010Z,10.90
2019-03-31T00:41:20.741Z,10.90
2019-03-31T00:43:49.458Z,10.80
2019-03-31T00:46:18.197Z,10.80
2019-03-31T00:48:47.003Z,10.70
2019-03-31T00:51:15.745Z,10.70
2019-03-31T00:53:44.465Z,10.80
2019-03-31T00:56:13.271Z,10.80
2019-03-31T00:58:41.981Z,10.90
2019-03-31T01:01:10.730Z,11.00
2019-03-31T01:03:39.649Z,11.00
2019-03-31T01:06:08.487Z,11.10
2019-03-31T01:08:37.204Z,11.00
2019-03-31T01:11:09.019Z,11.00
2019-03-31T01:13:37.822Z,11.00
2019-03-31T01:16:06.737Z,11.00
2019-03-31T01:18:35.674Z,11.00
2019-03-31T01:21:04.459Z,11.00
2019-03-31T01:23:33.478Z,11.00
2019-03-31T01:26:02.440Z,11.00
2019-03-31T01:28:31.608Z,11.10
2019-03-31T01:31:00.459Z,11.10
2019-03-31T01:33:29.272Z,11.10
2019-03-31T01:35:57.987Z,11.10
2019-03-31T01:38:26.798Z,11.00
2019-03-31T01:40:55.592Z,11.00
2019-03-31T01:43:24.332Z,10.90
2019-03-31T01:45:53.211Z,10.90
2019-03-31T01:48:21.958Z,10.80
2019-03-31T01:50:50.688Z,10.70
2019-03-31T01:53:19.446Z,10.70
2019-03-31T01:55:48.255Z,10.60
2019-03-31T01:58:16.995Z,10.60
2019-03-31T02:00:45.792Z,10.50
2019-03-31T02:03:14.531Z,10.50
2019-03-31T02:05:43.257Z,10.40
2019-03-31T02:08:12.076Z,10.30
2019-03-31T02:10:40.979Z,10.30
2019-03-31T02:13:09.766Z,10.20
2019-03-31T02:15:38.486Z,10.20
2019-03-31T02:18:07.340Z,10.20
2019-03-31T02:20:36.076Z,10.10
2019-03-31T02:23:04.870Z,10.10
2019-03-31T02:25:33.699Z,10.10
2019-03-31T02:28:02.490Z,10.10
2019-03-31T02:30:31.239Z,10.10
2019-03-31T02:32:59.959Z,10.00
2019-03-31T02:35:28.696Z,10.00
2019-03-31T02:37:57.422Z,10.00
2019-03-31T02:40:26.152Z,9.90
2019-03-31T02:42:54.933Z,9.90
2019-03-31T02:45:23.680Z,9.90
2019-03-31T02:47:52.444Z,9.90
2019-03-31T02:50:35.928Z,9.80
2019-03-31T02:53:04.776Z,9.80
2019-03-31T02:55:33.952Z,9.80
2019-03-31T02:58:03.212Z,9.80
2019-03-31T03:00:32.092Z,9.70
2019-03-31T03:03:02.951Z,9.70
2019-03-31T03:05:34.324Z,9.60
2019-03-31T03:08:03.576Z,9.60
2019-03-31T03:10:33.557Z,9.60
2019-03-31T03:13:02.803Z,9.60
2019-03-31T03:15:34.626Z,9.60
2019-03-31T03:18:03.480Z,9.50
2019-03-31T03:20:32.360Z,9.50
2019-03-31T03:23:01.110Z,9.50
2019-03-31T03:25:29.826Z,9.40
2019-03-31T03:27:58.556Z,9.40
2019-03-31T03:30:27.327Z,9.40
2019-03-31T03:33:15.506Z,9.40
2019-03-31T03:35:26.621Z,9.40
2019-03-31T03:37:55.415Z,9.30
2019-03-31T03:40:24.133Z,9.30
2019-03-31T03:42:52.952Z,9.30
2019-03-31T03:45:21.669Z,9.20
2019-03-31T03:47:50.407Z,9.20
2019-03-31T03:50:19.165Z,9.10
2019-03-31T03:52:47.938Z,9.10
2019-03-31T03:55:16.723Z,9.10
2019-03-31T03:57:45.478Z,9.00
2019-03-31T04:00:14.386Z,9.00
2019-03-31T04:02:43.128Z,9.00
2019-03-31T04:05:11.905Z,9.00
2019-03-31T04:07:40.744Z,9.00
2019-03-31T04:10:42.396Z,8.90
2019-03-31T04:13:11.197Z,8.90
2019-03-31T04:15:39.928Z,8.90
2019-03-31T04:18:08.888Z,8.90
2019-03-31T04:20:39.420Z,9.00
2019-03-31T04:23:08.211Z,8.90
2019-03-31T04:25:36.999Z,8.90
2019-03-31T04:28:05.735Z,9.00
2019-03-31T04:30:34.452Z,9.00
2019-03-31T04:33:03.250Z,9.00
2019-03-31T04:35:31.998Z,9.10
2019-03-31T04:38:00.742Z,9.10
2019-03-31T04:40:29.585Z,9.10
2019-03-31T04:42:58.364Z,9.10
2019-03-31T04:45:27.200Z,9.10
2019-03-31T04:47:56.013Z,9.00
2019-03-31T04:50:24.720Z,9.00
2019-03-31T04:52:53.452Z,9.00
2019-03-31T04:55:22.242Z,9.00
2019-03-31T04:57:51.054Z,8.90
2019-03-31T05:00:19.761Z,8.90
2019-03-31T05:02:48.471Z,8.90
2019-03-31T05:05:17.217Z,8.80
2019-03-31T05:07:45.932Z,8.80
2019-03-31T05:10:14.890Z,8.80
2019-03-31T05:12:43.746Z,8.80
2019-03-31T05:15:12.626Z,8.80
2019-03-31T05:17:41.346Z,8.80
2019-03-31T05:20:10.367Z,8.80
2019-03-31T05:22:39.665Z,8.80
2019-03-31T05:25:08.570Z,8.80
2019-03-31T05:27:37.412Z,8.80
2019-03-31T05:30:06.464Z,8.80
2019-03-31T05:32:35.184Z,8.80
2019-03-31T05:35:04.771Z,8.80
2019-03-31T05:37:33.481Z,8.90
2019-03-31T05:40:03.110Z,8.90
2019-03-31T05:42:31.865Z,8.90
2019-03-31T05:45:00.661Z,9.00
2019-03-31T05:47:29.385Z,9.10
2019-03-31T05:49:58.198Z,9.10
2019-03-31T05:52:26.907Z,9.30
2019-03-31T05:54:55.638Z,9.60
2019-03-31T05:57:24.386Z,9.90
2019-03-31T05:59:53.246Z,9.90
2019-03-31T06:02:21.963Z,9.80
2019-03-31T06:04:50.836Z,9.80
2019-03-31T06:07:19.593Z,9.80
2019-03-31T06:09:48.361Z,9.90
2019-03-31T06:12:17.100Z,9.90
2019-03-31T06:14:45.910Z,10.00
2019-03-31T06:17:14.739Z,10.00
2019-03-31T06:19:43.462Z,10.10
2019-03-31T06:22:12.201Z,10.10
2019-03-31T06:24:40.927Z,10.10
2019-03-31T06:27:09.666Z,10.10
2019-03-31T06:29:38.460Z,10.10
2019-03-31T06:32:07.299Z,10.10
2019-03-31T06:34:46.663Z,10.10
2019-03-31T06:37:06.453Z,10.20
2019-03-31T06:39:35.167Z,10.20
2019-03-31T06:42:04.036Z,10.30
2019-03-31T06:44:32.755Z,10.50
2019-03-31T06:47:01.524Z,10.50
2019-03-31T06:49:30.290Z,10.60
2019-03-31T06:51:59.027Z,10.60
2019-03-31T06:54:27.885Z,10.60
2019-03-31T06:56:56.656Z,10.60
2019-03-31T06:59:25.362Z,10.60
2019-03-31T07:01:54.230Z,10.60
2019-03-31T07:04:23.076Z,10.60
2019-03-31T07:06:52.204Z,10.50
2019-03-31T07:09:21.262Z,10.50
2019-03-31T07:11:50.044Z,10.30
2019-03-31T07:14:18.846Z,10.10
2019-03-31T07:16:47.554Z,9.90
2019-03-31T07:19:16.326Z,9.80
2019-03-31T07:21:45.023Z,9.70
2019-03-31T07:24:13.859Z,9.50
2019-03-31T07:26:42.587Z,9.50
2019-03-31T07:29:11.326Z,9.50
2019-03-31T07:31:40.037Z,9.50
2019-03-31T07:34:08.848Z,9.40
2019-03-31T07:36:37.580Z,9.40
2019-03-31T07:39:06.696Z,9.20
2019-03-31T07:41:36.205Z,9.30
2019-03-31T07:44:05.154Z,9.10
2019-03-31T07:46:33.898Z,9.10
2019-03-31T07:49:02.631Z,9.10
2019-03-31T07:51:31.345Z,8.90
2019-03-31T07:54:00.119Z,8.50
2019-03-31T07:56:28.904Z,8.50
2019-03-31T07:58:57.735Z,8.20
2019-03-31T08:01:26.605Z,8.10
2019-03-31T08:03:55.410Z,7.70
2019-03-31T08:06:24.221Z,7.70
2019-03-31T08:08:53.450Z,7.50
2019-03-31T08:11:22.372Z,7.50
2019-03-31T08:13:51.154Z,7.50
2019-03-31T08:16:19.883Z,7.50
2019-03-31T08:18:48.638Z,7.50
2019-03-31T08:21:17.376Z,7.50
2019-03-31T08:23:46.163Z,7.40
2019-03-31T08:26:15.045Z,7.50
2019-03-31T08:28:43.795Z,7.50
2019-03-31T08:31:12.635Z,7.50
2019-03-31T08:33:41.365Z,7.50
2019-03-31T08:36:10.166Z,7.50
2019-03-31T08:38:38.947Z,7.50
2019-03-31T08:41:07.673Z,7.40
2019-03-31T08:43:36.388Z,7.40
2019-03-31T08:46:05.129Z,7.40
2019-03-31T08:48:33.924Z,7.50
2019-03-31T08:51:02.689Z,7.50
2019-03-31T08:53:31.403Z,7.50
2019-03-31T08:56:00.205Z,7.50
2019-03-31T08:58:28.913Z,7.50
2019-03-31T09:00:57.755Z,7.50
2019-03-31T09:03:26.469Z,7.50
2019-03-31T09:06:01.554Z,7.50
2019-03-31T09:08:25.825Z,7.50
2019-03-31T09:10:54.624Z,7.50
2019-03-31T09:13:23.351Z,7.50
2019-03-31T09:15:52.151Z,7.50
2019-03-31T09:18:21.035Z,7.60
2019-03-31T09:20:49.818Z,7.60
2019-03-31T09:23:18.698Z,7.70
2019-03-31T09:25:47.868Z,7.70
2019-03-31T09:28:16.735Z,7.70
2019-03-31T09:30:45.516Z,7.70
2019-03-31T09:33:14.283Z,7.70
2019-03-31T09:35:43.119Z,7.90
2019-03-31T09:38:11.867Z,8.00
2019-03-31T09:40:40.649Z,8.00
2019-03-31T09:43:09.397Z,8.10
2019-03-31T09:45:38.251Z,8.20
2019-03-31T09:48:07.057Z,8.30
2019-03-31T09:50:35.776Z,8.40
2019-03-31T09:53:04.654Z,8.50
2019-03-31T09:55:33.356Z,8.70
2019-03-31T09:58:02.097Z,8.70
2019-03-31T10:00:49.977Z,8.80
2019-03-31T10:03:20.053Z,9.00
2019-03-31T10:05:48.998Z,8.90
2019-03-31T10:08:21.562Z,9.10
2019-03-31T10:10:48.270Z,9.20
2019-03-31T10:13:17.077Z,9.30
2019-03-31T10:15:45.791Z,9.50
2019-03-31T10:18:17.958Z,9.40
2019-03-31T10:20:45.577Z,9.50
2019-03-31T10:23:14.288Z,9.70
2019-03-31T10:25:43.084Z,9.80
2019-03-31T10:28:11.824Z,9.80
2019-03-31T10:30:40.671Z,9.90
2019-03-31T10:33:09.517Z,10.00
2019-03-31T10:35:38.266Z,10.10
2019-03-31T10:38:07.410Z,10.20
2019-03-31T10:40:36.237Z,10.30
2019-03-31T10:43:05.104Z,10.40
2019-03-31T10:45:33.926Z,10.40
2019-03-31T10:48:02.809Z,10.50
2019-03-31T10:50:31.741Z,10.50
2019-03-31T10:53:00.453Z,10.80
2019-03-31T10:55:29.190Z,10.90
2019-03-31T10:57:57.900Z,11.10
2019-03-31T11:00:31.825Z,11.10
2019-03-31T11:03:00.607Z,11.40
2019-03-31T11:05:30.677Z,11.10
2019-03-31T11:07:59.531Z,11.30
2019-03-31T11:10:28.401Z,11.20
2019-03-31T11:12:57.366Z,11.40
2019-03-31T11:15:26.361Z,11.50
2019-03-31T11:17:55.085Z,11.40
2019-03-31T11:20:23.837Z,11.60
2019-03-31T11:22:52.590Z,11.50
2019-03-31T11:25:26.108Z,11.50
2019-03-31T11:27:51.742Z,11.60
2019-03-31T11:30:20.566Z,11.70
2019-03-31T11:32:49.365Z,11.80
2019-03-31T11:35:18.216Z,11.90
2019-03-31T11:37:47.033Z,12.00
2019-03-31T11:40:15.881Z,12.10
2019-03-31T11:42:44.695Z,12.30
2019-03-31T11:45:13.674Z,12.50
2019-03-31T11:47:42.483Z,12.70
2019-03-31T11:50:11.335Z,12.50
2019-03-31T11:52:40.170Z,12.60
2019-03-31T11:55:09.240Z,12.50
2019-03-31T11:57:38.052Z,12.60
2019-03-31T12:00:09.239Z,12.60
2019-03-31T12:02:37.974Z,12.80
2019-03-31T12:05:07.022Z,12.90
2019-03-31T12:07:46.621Z,13.10
2019-03-31T12:10:07.654Z,12.90
2019-03-31T12:12:36.387Z,13.00
2019-03-31T12:15:07.223Z,13.10
2019-03-31T12:17:36.035Z,13.10
2019-03-31T12:20:09.112Z,13.20
2019-03-31T12:22:37.936Z,13.00
2019-03-31T12:25:08.266Z,13.20
2019-03-31T12:27:37.038Z,13.30
2019-03-31T12:30:06.732Z,13.00
2019-03-31T12:32:38.382Z,13.00
2019-03-31T12:35:08.074Z,13.20
2019-03-31T12:37:42.761Z,13.00
2019-03-31T12:40:10.467Z,13.10
2019-03-31T12:42:39.241Z,13.10
2019-03-31T12:45:08.030Z,13.30
2019-03-31T12:47:36.843Z,13.20
2019-03-31T12:50:06.393Z,13.40
2019-03-31T12:52:46.057Z,13.60
2019-03-31T12:55:05.743Z,13.60
2019-03-31T12:57:34.462Z,13.40
2019-03-31T13:00:04.541Z,13.30
2019-03-31T13:02:33.406Z,13.20
2019-03-31T13:05:02.559Z,13.20
2019-03-31T13:07:31.277Z,13.10
2019-03-31T13:10:00.020Z,13.20
2019-03-31T13:12:28.823Z,13.10
2019-03-31T13:14:57.572Z,13.20
2019-03-31T13:17:26.366Z,13.00
2019-03-31T13:19:55.188Z,13.20
2019-03-31T13:22:23.917Z,13.30
2019-03-31T13:24:52.698Z,13.40
2019-03-31T13:27:21.458Z,13.20
2019-03-31T13:29:50.285Z,13.10
2019-03-31T13:32:19.066Z,13.10
2019-03-31T13:34:47.944Z,13.30
2019-03-31T13:37:16.711Z,13.20
2019-03-31T13:39:45.533Z,13.40
2019-03-31T13:42:14.379Z,13.50
2019-03-31T13:44:43.098Z,13.60
2019-03-31T13:47:11.844Z,13.40
2019-03-31T13:49:40.580Z,13.50
2019-03-31T13:52:09.389Z,13.50
2019-03-31T13:54:38.115Z,13.40
2019-03-31T13:57:08.662Z,13.40
2019-03-31T13:59:38.033Z,13.60
2019-03-31T14:02:06.975Z,13.40
2019-03-31T14:04:50.704Z,13.40
2019-03-31T14:07:06.280Z,13.70
2019-03-31T14:09:35.000Z,13.80
2019-03-31T14:12:03.921Z,13.60
2019-03-31T14:14:32.648Z,13.70
2019-03-31T14:17:01.406Z,13.70
2019-03-31T14:19:30.190Z,13.90
2019-03-31T14:21:59.003Z,13.80
2019-03-31T14:24:27.720Z,13.60
2019-03-31T14:26:56.485Z,13.60
2019-03-31T14:29:25.208Z,13.50
2019-03-31T14:31:54.091Z,13.30
2019-03-31T14:34:22.878Z,13.40
2019-03-31T14:36:51.698Z,13.50
2019-03-31T14:39:20.404Z,13.40
2019-03-31T14:41:49.191Z,13.40
2019-03-31T14:44:18.014Z,13.20
2019-03-31T14:46:46.736Z,13.20
2019-03-31T14:49:15.485Z,12.90
2019-03-31T14:51:44.199Z,13.10
2019-03-31T14:54:13.031Z,13.20
2019-03-31T14:56:41.776Z,13.30
2019-03-31T14:59:10.585Z,13.30
2019-03-31T15:01:39.319Z,13.30
2019-03-31T15:04:08.209Z,13.40
2019-03-31T15:06:37.146Z,13.20
2019-03-31T15:09:07.536Z,13.30
2019-03-31T15:11:36.322Z,13.30
2019-03-31T15:14:05.187Z,13.40
2019-03-31T15:16:34.011Z,13.40
2019-03-31T15:19:02.818Z,13.30
2019-03-31T15:21:31.599Z,13.30
2019-03-31T15:24:00.418Z,13.30
2019-03-31T15:26:29.212Z,13.30
2019-03-31T15:28:57.987Z,13.20
2019-03-31T15:31:26.690Z,13.00
2019-03-31T15:33:55.422Z,12.80
2019-03-31T15:36:24.132Z,12.80
2019-03-31T15:38:52.931Z,12.80
2019-03-31T15:41:21.738Z,12.90
2019-03-31T15:43:50.534Z,12.80
2019-03-31T15:46:19.281Z,12.70
2019-03-31T15:48:47.999Z,12.60
2019-03-31T15:51:16.824Z,12.60
2019-03-31T15:53:45.674Z,12.50
2019-03-31T15:56:14.508Z,12.30
2019-03-31T15:58:43.283Z,12.30
2019-03-31T16:01:12.096Z,12.50
2019-03-31T16:03:40.826Z,12.40
2019-03-31T16:06:09.556Z,12.30
2019-03-31T16:08:38.274Z,12.30
2019-03-31T16:11:07.076Z,12.30
2019-03-31T16:13:35.840Z,12.40
2019-03-31T16:16:04.736Z,12.30
2019-03-31T16:18:33.533Z,12.40
2019-03-31T16:21:02.253Z,12.40
2019-03-31T16:23:31.023Z,12.20
2019-03-31T16:25:59.906Z,12.20
2019-03-31T16:28:28.812Z,11.90
2019-03-31T16:30:57.690Z,12.00
2019-03-31T16:33:28.686Z,11.80
2019-03-31T16:35:57.622Z,11.70
2019-03-31T16:38:26.563Z,11.70
2019-03-31T16:40:55.415Z,11.70
2019-03-31T16:43:24.182Z,11.70
2019-03-31T16:45:52.966Z,11.60
2019-03-31T16:48:21.780Z,11.60
2019-03-31T16:50:50.638Z,11.60
2019-03-31T16:53:19.494Z,11.60
2019-03-31T16:55:48.211Z,11.40
2019-03-31T16:58:16.957Z,11.50
2019-03-31T17:00:45.734Z,11.50
2019-03-31T17:03:17.957Z,11.40
2019-03-31T17:05:44.940Z,11.50
2019-03-31T17:08:13.769Z,11.40
2019-03-31T17:10:42.563Z,11.40
2019-03-31T17:13:11.394Z,11.30
2019-03-31T17:15:40.158Z,11.30
2019-03-31T17:18:08.901Z,11.20
2019-03-31T17:20:38.766Z,11.20
2019-03-31T17:23:07.552Z,11.10
2019-03-31T17:25:37.176Z,11.00
2019-03-31T17:28:06.033Z,11.00
2019-03-31T17:30:34.947Z,10.90
2019-03-31T17:33:03.795Z,10.90
2019-03-31T17:35:32.534Z,10.90
2019-03-31T17:38:01.340Z,10.90
2019-03-31T17:40:30.275Z,10.70
2019-03-31T17:42:58.979Z,10.80
2019-03-31T17:45:27.715Z,10.70
2019-03-31T17:47:56.508Z,10.60
2019-03-31T17:50:25.264Z,10.60
2019-03-31T17:52:54.054Z,10.50
2019-03-31T17:55:22.799Z,10.50
2019-03-31T17:57:51.574Z,10.40
2019-03-31T18:00:20.329Z,10.40
2019-03-31T18:02:49.107Z,10.40
2019-03-31T18:05:17.984Z,10.30
2019-03-31T18:07:46.736Z,10.30
2019-03-31T18:10:21.241Z,10.20
2019-03-31T18:12:46.145Z,10.10
2019-03-31T18:15:15.013Z,10.10
2019-03-31T18:17:44.061Z,10.10
2019-03-31T18:20:13.058Z,10.10
2019-03-31T18:22:41.768Z,10.00
2019-03-31T18:25:11.868Z,10.00
2019-03-31T18:27:40.783Z,10.00
2019-03-31T18:30:09.956Z,10.00
2019-03-31T18:32:38.823Z,9.90
2019-03-31T18:35:07.674Z,9.90
2019-03-31T18:37:36.427Z,9.80
2019-03-31T18:40:06.642Z,9.80
2019-03-31T18:42:35.378Z,9.70
2019-03-31T18:45:06.080Z,9.70
2019-03-31T18:47:34.902Z,9.70
2019-03-31T18:50:05.664Z,9.60
2019-03-31T18:52:34.543Z,9.60
2019-03-31T18:55:04.485Z,9.60
2019-03-31T18:57:33.224Z,9.60
2019-03-31T19:00:03.456Z,9.60
2019-03-31T19:02:32.239Z,9.60
2019-03-31T19:05:01.021Z,9.60
2019-03-31T19:07:29.891Z,9.60
2019-03-31T19:10:01.326Z,9.60
2019-03-31T19:12:30.055Z,9.60
2019-03-31T19:14:58.840Z,9.50
2019-03-31T19:17:27.626Z,9.50
2019-03-31T19:19:56.411Z,9.50
2019-03-31T19:22:25.278Z,9.50
2019-03-31T19:24:53.975Z,9.40
2019-03-31T19:27:22.759Z,9.30
2019-03-31T19:29:51.697Z,9.40
2019-03-31T19:32:20.471Z,9.30
2019-03-31T19:34:49.226Z,9.30
2019-03-31T19:37:18.026Z,9.30
2019-03-31T19:39:46.758Z,9.20
2019-03-31T19:42:15.627Z,9.20
2019-03-31T19:44:44.488Z,9.30
2019-03-31T19:47:13.188Z,9.20
2019-03-31T19:49:41.975Z,9.20
2019-03-31T19:52:10.815Z,9.10
2019-03-31T19:54:39.848Z,9.10
2019-03-31T19:57:11.893Z,9.10
2019-03-31T19:59:39.578Z,9.00
2019-03-31T20:02:08.328Z,9.00
2019-03-31T20:04:39.027Z,9.00
2019-03-31T20:07:08.032Z,8.90
2019-03-31T20:09:36.829Z,8.90
2019-03-31T20:12:05.575Z,8.90
2019-03-31T20:14:34.499Z,8.80
2019-03-31T20:17:03.268Z,8.80
2019-03-31T20:19:32.000Z,8.70
2019-03-31T20:22:00.786Z,8.70
2019-03-31T20:24:29.520Z,8.60
2019-03-31T20:26:58.254Z,8.60
2019-03-31T20:29:27.094Z,8.60
2019-03-31T20:31:55.800Z,8.50
2019-03-31T20:34:24.491Z,8.50
2019-03-31T20:36:53.224Z,8.50
2019-03-31T20:39:22.005Z,8.40
2019-03-31T20:41:50.726Z,8.40
2019-03-31T20:44:19.555Z,8.30
2019-03-31T20:46:48.304Z,8.40
2019-03-31T20:49:17.007Z,8.30
2019-03-31T20:51:45.803Z,8.30
2019-03-31T20:54:17.359Z,8.20
2019-03-31T20:56:46.123Z,8.20
2019-03-31T20:59:14.952Z,8.10
2019-03-31T21:01:43.822Z,8.10
2019-03-31T21:04:12.508Z,8.10
2019-03-31T21:06:41.231Z,8.10
2019-03-31T21:09:09.936Z,8.00
2019-03-31T21:11:38.687Z,8.00
2019-03-31T21:14:07.462Z,8.00
2019-03-31T21:16:36.160Z,8.00
2019-03-31T21:19:04.883Z,8.00
2019-03-31T21:21:33.587Z,7.90
2019-03-31T21:24:02.320Z,7.90
2019-03-31T21:26:31.025Z,7.80
2019-03-31T21:28:59.748Z,7.80
2019-03-31T21:31:28.447Z,7.70
2019-03-31T21:33:58.111Z,7.70
2019-03-31T21:36:26.809Z,7.70
2019-03-31T21:38:55.546Z,7.60
2019-03-31T21:41:24.307Z,7.60
2019-03-31T21:43:53.040Z,7.50
2019-03-31T21:46:21.764Z,7.50
2019-03-31T21:48:50.485Z,7.50
2019-03-31T21:51:19.184Z,7.40
2019-03-31T21:53:47.907Z,7.40
2019-03-31T21:56:16.622Z,7.40
2019-03-31T21:58:45.355Z,7.40
2019-03-31T22:01:14.400Z,7.40
2019-03-31T22:03:43.194Z,7.30
2019-03-31T22:06:12.029Z,7.30
2019-03-31T22:08:40.761Z,7.20
